createdAt,value
2022-09-18T00:01:40.053Z,100537.38
2022-09-18T00:04:13.126Z,100535.72
2022-09-18T00:06:42.820Z,100529.63
2022-09-18T00:09:14.515Z,100533.97
2022-09-18T00:11:44.469Z,100535.59
2022-09-18T00:14:15.440Z,100530.31
2022-09-18T00:16:44.129Z,100533.03
2022-09-18T00:19:14.372Z,100527.00
2022-09-18T00:21:44.399Z,100523.56
2022-09-18T00:24:13.369Z,100523.63
2022-09-18T00:26:41.968Z,100526.22
2022-09-18T00:29:11.597Z,100527.16
2022-09-18T00:31:40.233Z,100530.72
2022-09-18T00:34:11.714Z,100522.91
2022-09-18T00:36:42.300Z,100536.16
2022-09-18T00:39:11.889Z,100528.19
2022-09-18T00:41:42.219Z,100539.38
2022-09-18T00:44:39.450Z,100535.84
2022-09-18T00:47:17.691Z,100532.31
2022-09-18T00:49:51.790Z,100537.47
2022-09-18T00:52:25.369Z,100534.75
2022-09-18T00:54:57.810Z,100539.94
2022-09-18T00:57:30.269Z,100527.78
2022-09-18T00:59:59.047Z,100539.22
2022-09-18T01:02:27.146Z,100530.53
2022-09-18T01:04:55.682Z,100525.28
2022-09-18T01:07:36.724Z,100538.47
2022-09-18T01:10:14.930Z,100528.81
2022-09-18T01:12:51.529Z,100527.13
2022-09-18T01:15:28.029Z,100529.03
2022-09-18T01:18:04.620Z,100526.44
2022-09-18T01:20:53.710Z,100531.78
2022-09-18T01:23:59.236Z,100519.69
2022-09-18T01:26:45.711Z,100527.75
2022-09-18T01:29:23.701Z,100526.06
2022-09-18T01:31:58.690Z,100521.84
2022-09-18T01:34:34.869Z,100522.00
2022-09-18T01:37:13.599Z,100523.84
2022-09-18T01:39:48.422Z,100514.34
2022-09-18T01:42:19.980Z,100517.84
2022-09-18T01:44:52.308Z,100510.94
2022-09-18T01:47:26.457Z,100503.88
2022-09-18T01:49:56.730Z,100510.00
2022-09-18T01:52:29.880Z,100496.91
2022-09-18T01:55:01.221Z,100506.50
2022-09-18T01:57:35.779Z,100514.47
2022-09-18T02:00:09.547Z,100496.00
2022-09-18T02:03:02.025Z,100495.19
2022-09-18T02:05:38.350Z,100500.50
2022-09-18T02:08:14.870Z,100493.66
2022-09-18T02:10:49.628Z,100498.91
2022-09-18T02:13:22.569Z,100497.25
2022-09-18T02:15:55.265Z,100492.00
2022-09-18T02:18:30.479Z,100490.16
2022-09-18T02:21:00.247Z,100484.03
2022-09-18T02:23:29.879Z,100490.28
2022-09-18T02:26:01.579Z,100499.16
2022-09-18T02:28:31.650Z,100497.50
2022-09-18T02:31:01.309Z,100488.81
2022-09-18T02:33:34.351Z,100484.50
2022-09-18T02:36:24.319Z,100478.09
2022-09-18T02:39:05.240Z,100484.00
2022-09-18T02:41:41.720Z,100479.41
2022-09-18T02:44:15.831Z,100485.34
2022-09-18T02:46:57.020Z,100480.78
2022-09-18T02:49:36.372Z,100473.50
2022-09-18T02:52:10.419Z,100473.22
2022-09-18T02:54:45.190Z,100464.28
2022-09-18T02:57:20.081Z,100458.03
2022-09-18T02:59:52.759Z,100471.03
2022-09-18T03:02:24.122Z,100461.31
2022-09-18T03:04:53.267Z,100458.53
2022-09-18T03:07:32.649Z,100461.00
2022-09-18T03:10:03.880Z,100454.91
2022-09-18T03:12:32.580Z,100459.25
2022-09-18T03:15:00.849Z,100454.91
2022-09-18T03:17:30.598Z,100459.25
2022-09-18T03:19:58.740Z,100459.34
2022-09-18T03:22:26.930Z,100460.28
2022-09-18T03:24:55.150Z,100451.50
2022-09-18T03:27:23.497Z,100447.16
2022-09-18T03:29:52.848Z,100455.13
2022-09-18T03:32:24.290Z,100450.94
2022-09-18T03:34:55.330Z,100456.25
2022-09-18T03:37:24.441Z,100459.03
2022-09-18T03:39:59.021Z,100456.63
2022-09-18T03:42:27.127Z,100465.53
2022-09-18T03:44:56.470Z,100467.38
2022-09-18T03:47:31.899Z,100460.38
2022-09-18T03:50:03.867Z,100457.69
2022-09-18T03:52:34.290Z,100452.34
2022-09-18T03:55:11.208Z,100456.56
2022-09-18T03:57:58.329Z,100459.19
2022-09-18T04:00:45.253Z,100454.84
2022-09-18T04:03:21.970Z,100459.25
2022-09-18T04:06:17.207Z,100442.81
2022-09-18T04:09:10.959Z,100449.06
2022-09-18T04:11:45.767Z,100443.94
2022-09-18T04:14:14.409Z,100446.56
2022-09-18T04:16:42.638Z,100451.91
2022-09-18T04:19:11.079Z,100445.00
2022-09-18T04:21:41.518Z,100447.75
2022-09-18T04:24:10.030Z,100443.50
2022-09-18T04:26:38.419Z,100443.59
2022-09-18T04:29:07.018Z,100441.81
2022-09-18T04:31:38.066Z,100442.72
2022-09-18T04:34:11.230Z,100454.94
2022-09-18T04:36:39.472Z,100448.03
2022-09-18T04:39:11.170Z,100453.28
2022-09-18T04:41:39.600Z,100448.13
2022-09-18T04:44:08.469Z,100448.13
2022-09-18T04:46:36.785Z,100446.38
2022-09-18T04:49:05.101Z,100450.81
2022-09-18T04:51:33.409Z,100452.53
2022-09-18T04:54:02.053Z,100445.56
2022-09-18T04:56:31.620Z,100446.38
2022-09-18T04:59:00.117Z,100454.16
2022-09-18T05:01:28.957Z,100456.75
2022-09-18T05:04:00.260Z,100456.66
2022-09-18T05:06:40.282Z,100455.75
2022-09-18T05:09:08.558Z,100446.97
2022-09-18T05:11:38.079Z,100456.63
2022-09-18T05:14:06.747Z,100455.66
2022-09-18T05:16:36.133Z,100470.47
2022-09-18T05:19:25.129Z,100467.72
2022-09-18T05:22:00.388Z,100466.88
2022-09-18T05:24:28.620Z,100466.97
2022-09-18T05:26:58.730Z,100462.59
2022-09-18T05:29:27.121Z,100466.97
2022-09-18T05:32:02.409Z,100466.13
2022-09-18T05:34:31.119Z,100456.63
2022-09-18T05:36:59.338Z,100455.88
2022-09-18T05:39:28.409Z,100460.41
2022-09-18T05:42:01.362Z,100475.47
2022-09-18T05:44:30.259Z,100474.72
2022-09-18T05:46:59.114Z,100481.78
2022-09-18T05:49:28.589Z,100472.28
2022-09-18T05:51:58.869Z,100471.41
2022-09-18T05:54:31.760Z,100474.13
2022-09-18T05:57:01.319Z,100473.22
2022-09-18T05:59:32.419Z,100474.94
2022-09-18T06:02:02.132Z,100477.53
2022-09-18T06:04:48.711Z,100472.19
2022-09-18T06:07:17.664Z,100468.66
2022-09-18T06:09:45.979Z,100477.44
2022-09-18T06:12:15.597Z,100478.22
2022-09-18T06:14:43.701Z,100486.94
2022-09-18T06:17:11.931Z,100488.78
2022-09-18T06:19:40.149Z,100494.06
2022-09-18T06:22:09.789Z,100490.66
2022-09-18T06:24:38.111Z,100486.31
2022-09-18T06:27:08.825Z,100486.19
2022-09-18T06:29:38.411Z,100486.94
2022-09-18T06:32:12.519Z,100482.44
2022-09-18T06:34:41.699Z,100483.97
2022-09-18T06:37:13.790Z,100477.69
2022-09-18T06:39:44.906Z,100486.19
2022-09-18T06:42:23.353Z,100489.56
2022-09-18T06:45:11.759Z,100482.41
2022-09-18T06:47:43.080Z,100491.75
2022-09-18T06:50:11.499Z,100482.00
2022-09-18T06:52:39.631Z,100488.75
2022-09-18T06:55:08.392Z,100478.88
2022-09-18T06:57:36.678Z,100476.22
2022-09-18T07:00:06.171Z,100486.66
2022-09-18T07:02:40.223Z,100485.69
2022-09-18T07:05:28.339Z,100483.13
2022-09-18T07:07:56.837Z,100479.59
2022-09-18T07:10:26.017Z,100490.00
2022-09-18T07:12:57.137Z,100484.63
2022-09-18T07:15:26.343Z,100477.63
2022-09-18T07:17:58.580Z,100487.97
2022-09-18T07:20:27.347Z,100479.91
2022-09-18T07:22:58.279Z,100486.75
2022-09-18T07:25:39.301Z,100483.81
2022-09-18T07:28:09.822Z,100488.81
2022-09-18T07:30:45.321Z,100481.69
2022-09-18T07:33:14.941Z,100479.78
2022-09-18T07:35:48.429Z,100483.03
2022-09-18T07:38:18.538Z,100487.19
2022-09-18T07:40:53.939Z,100480.69
2022-09-18T07:43:31.034Z,100478.38
2022-09-18T07:46:01.088Z,100475.31
2022-09-18T07:48:33.979Z,100479.31
2022-09-18T07:51:12.200Z,100478.19
2022-09-18T07:53:54.346Z,100478.94
2022-09-18T07:56:37.097Z,100479.53
2022-09-18T07:59:05.559Z,100475.88
2022-09-18T08:01:35.745Z,100475.75
2022-09-18T08:04:07.442Z,100474.75
2022-09-18T08:06:36.709Z,100474.59
2022-09-18T08:09:12.800Z,100471.69
2022-09-18T08:11:59.479Z,100474.56
2022-09-18T08:14:46.257Z,100469.69
2022-09-18T08:17:32.848Z,100471.13
2022-09-18T08:20:22.947Z,100471.78
2022-09-18T08:22:54.970Z,100476.06
2022-09-18T08:25:28.353Z,100476.91
2022-09-18T08:28:01.691Z,100476.91
2022-09-18T08:30:37.381Z,100483.13
2022-09-18T08:33:10.369Z,100473.41
2022-09-18T08:35:40.479Z,100469.75
2022-09-18T08:38:27.367Z,100474.00
2022-09-18T08:41:33.899Z,100473.22
2022-09-18T08:44:06.829Z,100469.66
2022-09-18T08:46:42.186Z,100480.22
2022-09-18T08:49:25.911Z,100468.94
2022-09-18T08:52:05.928Z,100475.72
2022-09-18T08:54:45.588Z,100463.25
2022-09-18T08:57:38.501Z,100469.97
2022-09-18T09:00:17.071Z,100475.00
2022-09-18T09:02:53.755Z,100477.53
2022-09-18T09:05:25.150Z,100484.56
2022-09-18T09:08:10.081Z,100475.44
2022-09-18T09:10:44.109Z,100480.94
2022-09-18T09:13:31.161Z,100472.44
2022-09-18T09:16:05.394Z,100478.75
2022-09-18T09:18:41.590Z,100469.66
2022-09-18T09:21:21.961Z,100492.50
2022-09-18T09:24:09.819Z,100479.13
2022-09-18T09:26:59.209Z,100482.78
2022-09-18T09:29:46.917Z,100473.53
2022-09-18T09:32:25.829Z,100476.41
2022-09-18T09:35:18.080Z,100482.75
2022-09-18T09:38:02.950Z,100482.63
2022-09-18T09:40:37.621Z,100473.31
2022-09-18T09:43:16.052Z,100476.91
2022-09-18T09:45:48.287Z,100477.53
2022-09-18T09:48:26.928Z,100470.44
2022-09-18T09:51:04.149Z,100475.66
2022-09-18T09:53:32.834Z,100479.16
2022-09-18T09:56:15.731Z,100481.78
2022-09-18T09:58:50.629Z,100475.78
2022-09-18T10:01:25.887Z,100488.69
2022-09-18T10:04:05.687Z,100487.91
2022-09-18T10:06:45.578Z,100492.34
2022-09-18T10:09:23.588Z,100491.44
2022-09-18T10:12:00.465Z,100487.47
2022-09-18T10:14:35.655Z,100493.06
2022-09-18T10:17:05.597Z,100494.94
2022-09-18T10:19:38.710Z,100491.91
2022-09-18T10:22:11.299Z,100494.53
2022-09-18T10:24:47.299Z,100493.91
2022-09-18T10:27:20.224Z,100491.56
2022-09-18T10:29:48.676Z,100489.28
2022-09-18T10:32:44.159Z,100484.88
2022-09-18T10:35:44.641Z,100478.41
2022-09-18T10:38:34.903Z,100484.91
2022-09-18T10:41:26.417Z,100480.69
2022-09-18T10:43:59.250Z,100489.63
2022-09-18T10:46:31.775Z,100483.91
2022-09-18T10:49:04.566Z,100484.38
2022-09-18T10:51:32.819Z,100491.00
2022-09-18T10:54:04.730Z,100475.09
2022-09-18T10:56:53.714Z,100475.22
2022-09-18T10:59:36.360Z,100476.19
2022-09-18T11:02:07.650Z,100472.81
2022-09-18T11:04:38.399Z,100475.06
2022-09-18T11:07:08.010Z,100476.38
2022-09-18T11:09:40.746Z,100477.47
2022-09-18T11:12:17.711Z,100483.25
2022-09-18T11:14:50.639Z,100480.91
2022-09-18T11:17:26.641Z,100487.53
2022-09-18T11:19:58.619Z,100484.91
2022-09-18T11:22:41.742Z,100492.66
2022-09-18T11:25:23.033Z,100486.38
2022-09-18T11:27:56.539Z,100485.91
2022-09-18T11:30:29.959Z,100489.56
2022-09-18T11:33:04.006Z,100478.84
2022-09-18T11:35:33.869Z,100478.41
2022-09-18T11:38:08.059Z,100480.13
2022-09-18T11:40:48.516Z,100478.13
2022-09-18T11:43:23.488Z,100479.94
2022-09-18T11:46:02.741Z,100479.97
2022-09-18T11:48:35.599Z,100468.69
2022-09-18T11:51:10.765Z,100473.34
2022-09-18T11:53:44.291Z,100470.88
2022-09-18T11:56:17.120Z,100459.31
2022-09-18T11:58:50.847Z,100467.03
2022-09-18T12:01:29.219Z,100464.03
2022-09-18T12:04:05.039Z,100459.31
2022-09-18T12:06:41.590Z,100453.38
2022-09-18T12:09:17.083Z,100467.53
2022-09-18T12:11:56.419Z,100460.97
2022-09-18T12:14:33.577Z,100456.31
2022-09-18T12:17:19.474Z,100461.97
2022-09-18T12:19:52.152Z,100449.41
2022-09-18T12:22:28.100Z,100450.84
2022-09-18T12:24:56.551Z,100461.84
2022-09-18T12:27:54.006Z,100450.94
2022-09-18T12:30:29.363Z,100442.19
2022-09-18T12:33:13.465Z,100435.63
2022-09-18T12:35:58.558Z,100439.41
2022-09-18T12:38:42.899Z,100446.44
2022-09-18T12:41:25.517Z,100445.38
2022-09-18T12:44:14.358Z,100440.69
2022-09-18T12:46:59.851Z,100437.88
2022-09-18T12:49:45.471Z,100447.47
2022-09-18T12:52:27.675Z,100439.38
2022-09-18T12:55:20.753Z,100435.31
2022-09-18T12:58:03.600Z,100434.66
2022-09-18T13:00:31.809Z,100440.00
2022-09-18T13:03:12.751Z,100426.34
2022-09-18T13:05:48.097Z,100436.28
2022-09-18T13:08:21.765Z,100443.88
2022-09-18T13:10:54.711Z,100458.72
2022-09-18T13:13:31.986Z,100450.31
2022-09-18T13:16:05.085Z,100454.38
2022-09-18T13:18:41.389Z,100455.50
2022-09-18T13:21:16.478Z,100459.38
2022-09-18T13:23:46.815Z,100452.22
2022-09-18T13:26:16.944Z,100456.59
2022-09-18T13:28:45.802Z,100449.16
2022-09-18T13:31:22.771Z,100462.13
2022-09-18T13:33:53.268Z,100456.63
2022-09-18T13:36:28.358Z,100449.59
2022-09-18T13:39:01.426Z,100449.78
2022-09-18T13:41:30.423Z,100444.25
2022-09-18T13:44:00.973Z,100456.50
2022-09-18T13:46:33.891Z,100455.09
2022-09-18T13:49:13.639Z,100453.13
2022-09-18T13:51:43.295Z,100452.44
2022-09-18T13:54:30.274Z,100448.19
2022-09-18T13:57:19.486Z,100448.97
2022-09-18T13:59:50.482Z,100456.16
2022-09-18T14:02:28.763Z,100446.81
2022-09-18T14:05:00.713Z,100452.66
2022-09-18T14:08:07.787Z,100442.16
2022-09-18T14:10:59.473Z,100440.47
2022-09-18T14:13:40.897Z,100434.97
2022-09-18T14:16:13.429Z,100439.75
2022-09-18T14:18:57.118Z,100446.88
2022-09-18T14:21:31.957Z,100441.56
2022-09-18T14:24:26.215Z,100438.91
2022-09-18T14:27:24.185Z,100433.69
2022-09-18T14:29:57.447Z,100429.50
2022-09-18T14:32:27.486Z,100428.38
2022-09-18T14:35:22.895Z,100438.75
2022-09-18T14:37:51.126Z,100441.56
2022-09-18T14:40:22.605Z,100442.56
2022-09-18T14:42:52.788Z,100434.13
2022-09-18T14:45:27.285Z,100440.47
2022-09-18T14:47:56.571Z,100441.19
2022-09-18T14:50:27.771Z,100441.63
2022-09-18T14:52:56.643Z,100439.97
2022-09-18T14:55:29.701Z,100430.38
2022-09-18T14:58:03.702Z,100433.97
2022-09-18T15:00:34.623Z,100429.63
2022-09-18T15:03:07.662Z,100429.53
2022-09-18T15:05:36.031Z,100440.06
2022-09-18T15:08:10.446Z,100428.81
2022-09-18T15:10:41.505Z,100425.09
2022-09-18T15:13:14.845Z,100436.13
2022-09-18T15:15:44.187Z,100433.88
2022-09-18T15:18:20.482Z,100429.28
2022-09-18T15:20:50.789Z,100437.94
2022-09-18T15:23:20.833Z,100437.31
2022-09-18T15:25:52.525Z,100437.72
2022-09-18T15:28:25.508Z,100443.06
2022-09-18T15:30:57.504Z,100446.66
2022-09-18T15:33:27.507Z,100439.78
2022-09-18T15:35:57.128Z,100437.28
2022-09-18T15:38:31.901Z,100431.06
2022-09-18T15:41:05.426Z,100435.25
2022-09-18T15:43:43.618Z,100439.19
2022-09-18T15:46:13.632Z,100433.59
2022-09-18T15:48:45.310Z,100434.81
2022-09-18T15:51:17.127Z,100432.09
2022-09-18T15:54:05.627Z,100429.81
2022-09-18T15:56:35.387Z,100438.44
2022-09-18T15:59:07.646Z,100437.56
2022-09-18T16:01:39.871Z,100433.81
2022-09-18T16:04:17.995Z,100433.03
2022-09-18T16:06:53.974Z,100440.41
2022-09-18T16:09:34.887Z,100427.47
2022-09-18T16:12:23.713Z,100439.50
2022-09-18T16:15:03.814Z,100437.88
2022-09-18T16:17:36.888Z,100440.13
2022-09-18T16:20:25.823Z,100440.13
2022-09-18T16:22:57.744Z,100436.88
2022-09-18T16:25:29.520Z,100443.16
2022-09-18T16:27:59.534Z,100440.91
2022-09-18T16:30:29.760Z,100437.63
2022-09-18T16:33:03.840Z,100436.78
2022-09-18T16:35:32.014Z,100434.47
2022-09-18T16:38:00.183Z,100440.16
2022-09-18T16:40:31.341Z,100456.16
2022-09-18T16:42:59.982Z,100455.13
2022-09-18T16:45:29.724Z,100449.69
2022-09-18T16:48:00.689Z,100449.59
2022-09-18T16:50:29.222Z,100458.19
2022-09-18T16:53:01.434Z,100448.09
2022-09-18T16:55:31.524Z,100449.59
2022-09-18T16:57:59.731Z,100445.84
2022-09-18T17:00:29.482Z,100457.03
2022-09-18T17:02:58.263Z,100452.34
2022-09-18T17:05:26.534Z,100466.25
2022-09-18T17:07:54.791Z,100465.84
2022-09-18T17:10:23.005Z,100472.28
2022-09-18T17:12:51.400Z,100477.13
2022-09-18T17:15:19.722Z,100480.97
2022-09-18T17:17:49.061Z,100481.22
2022-09-18T17:20:18.721Z,100476.97
2022-09-18T17:22:47.741Z,100483.69
2022-09-18T17:25:16.463Z,100479.13
2022-09-18T17:27:44.992Z,100487.13
2022-09-18T17:30:13.705Z,100485.50
2022-09-18T17:32:42.172Z,100498.94
2022-09-18T17:35:11.604Z,100490.69
2022-09-18T17:37:39.971Z,100492.16
2022-09-18T17:40:09.152Z,100489.66
2022-09-18T17:42:37.852Z,100498.78
2022-09-18T17:45:06.945Z,100497.41
2022-09-18T17:47:35.110Z,100497.06
2022-09-18T17:50:05.112Z,100503.56
2022-09-18T17:52:36.205Z,100507.47
2022-09-18T17:55:05.123Z,100514.97
2022-09-18T17:57:35.662Z,100521.59
2022-09-18T18:00:05.032Z,100520.22
2022-09-18T18:02:39.985Z,100523.38
2022-09-18T18:05:08.584Z,100521.22
2022-09-18T18:07:37.942Z,100522.38
2022-09-18T18:10:06.761Z,100519.06
2022-09-18T18:12:36.311Z,100522.63
2022-09-18T18:15:04.702Z,100521.94
2022-09-18T18:17:36.067Z,100528.25
2022-09-18T18:20:05.263Z,100528.25
2022-09-18T18:22:33.466Z,100530.00
2022-09-18T18:25:02.964Z,100525.56
2022-09-18T18:27:31.943Z,100533.50
2022-09-18T18:30:00.513Z,100525.50
2022-09-18T18:32:29.373Z,100534.91
2022-09-18T18:34:58.103Z,100532.03
2022-09-18T18:37:26.291Z,100533.63
2022-09-18T18:39:55.150Z,100545.09
2022-09-18T18:42:28.301Z,100546.03
2022-09-18T18:44:56.604Z,100545.97
2022-09-18T18:47:25.223Z,100557.47
2022-09-18T18:49:54.251Z,100560.09
2022-09-18T18:52:23.711Z,100560.03
2022-09-18T18:54:51.843Z,100566.00
2022-09-18T18:57:21.622Z,100565.09
2022-09-18T18:59:51.473Z,100566.94
2022-09-18T19:02:19.543Z,100572.16
2022-09-18T19:04:47.802Z,100580.16
2022-09-18T19:07:15.833Z,100576.47
2022-09-18T19:09:44.103Z,100584.41
2022-09-18T19:12:13.280Z,100585.28
2022-09-18T19:14:42.072Z,100591.50
2022-09-18T19:17:11.343Z,100588.88
2022-09-18T19:19:40.703Z,100587.91
2022-09-18T19:22:09.621Z,100594.97
2022-09-18T19:24:38.022Z,100588.88
2022-09-18T19:27:06.851Z,100589.78
2022-09-18T19:29:35.919Z,100588.06
2022-09-18T19:32:04.450Z,100592.56
2022-09-18T19:34:34.275Z,100595.00
2022-09-18T19:37:02.416Z,100593.13
2022-09-18T19:39:30.724Z,100597.47
2022-09-18T19:42:04.102Z,100595.75
2022-09-18T19:44:36.404Z,100592.31
2022-09-18T19:47:07.550Z,100599.50
2022-09-18T19:49:39.871Z,100603.06
2022-09-18T19:52:18.055Z,100606.56
2022-09-18T19:54:46.561Z,100608.28
2022-09-18T19:57:15.721Z,100603.91
2022-09-18T19:59:43.932Z,100609.13
2022-09-18T20:02:14.237Z,100614.56
2022-09-18T20:04:44.843Z,100605.84
2022-09-18T20:07:13.203Z,100615.47
2022-09-18T20:09:41.703Z,100620.63
2022-09-18T20:12:11.040Z,100618.97
2022-09-18T20:14:39.384Z,100617.25
2022-09-18T20:17:08.249Z,100622.66
2022-09-18T20:19:36.874Z,100616.41
2022-09-18T20:22:06.569Z,100628.63
2022-09-18T20:24:35.175Z,100617.91
2022-09-18T20:27:03.435Z,100618.84
2022-09-18T20:29:31.523Z,100628.72
2022-09-18T20:31:59.575Z,100628.91
2022-09-18T20:34:27.904Z,100626.34
2022-09-18T20:36:56.134Z,100624.59
2022-09-18T20:39:25.713Z,100630.81
2022-09-18T20:41:53.914Z,100627.22
2022-09-18T20:44:22.433Z,100630.00
2022-09-18T20:46:56.576Z,100623.97
2022-09-18T20:49:25.462Z,100623.28
2022-09-18T20:51:53.805Z,100623.38
2022-09-18T20:54:22.852Z,100622.66
2022-09-18T20:56:52.321Z,100620.25
2022-09-18T20:59:21.025Z,100629.19
2022-09-18T21:01:49.452Z,100624.88
2022-09-18T21:04:20.325Z,100628.47
2022-09-18T21:06:51.705Z,100633.09
2022-09-18T21:09:19.908Z,100627.19
2022-09-18T21:11:48.189Z,100628.44
2022-09-18T21:14:18.246Z,100622.56
2022-09-18T21:16:46.468Z,100629.97
2022-09-18T21:19:17.366Z,100637.00
2022-09-18T21:21:46.486Z,100637.88
2022-09-18T21:24:17.415Z,100631.88
2022-09-18T21:26:47.871Z,100634.63
2022-09-18T21:29:20.700Z,100634.63
2022-09-18T21:31:51.404Z,100629.44
2022-09-18T21:34:24.245Z,100628.78
2022-09-18T21:36:54.517Z,100640.47
2022-09-18T21:39:22.937Z,100633.59
2022-09-18T21:41:53.381Z,100638.88
2022-09-18T21:44:27.003Z,100631.69
2022-09-18T21:46:56.719Z,100635.84
2022-09-18T21:49:24.987Z,100634.00
2022-09-18T21:51:55.777Z,100633.13
2022-09-18T21:54:25.230Z,100638.50
2022-09-18T21:56:56.710Z,100634.38
2022-09-18T21:59:30.335Z,100640.72
2022-09-18T22:01:59.092Z,100639.19
2022-09-18T22:04:29.416Z,100641.22
2022-09-18T22:06:59.667Z,100636.91
2022-09-18T22:09:30.291Z,100637.97
2022-09-18T22:12:00.120Z,100634.69
2022-09-18T22:14:32.537Z,100651.59
2022-09-18T22:17:01.858Z,100648.19
2022-09-18T22:19:30.569Z,100650.91
2022-09-18T22:21:58.976Z,100651.81
2022-09-18T22:24:28.640Z,100655.28
2022-09-18T22:26:58.747Z,100656.19
2022-09-18T22:29:30.496Z,100662.31
2022-09-18T22:32:00.059Z,100664.84
2022-09-18T22:34:30.770Z,100663.81
2022-09-18T22:36:59.736Z,100655.72
2022-09-18T22:39:28.718Z,100657.25
2022-09-18T22:41:57.490Z,100649.19
2022-09-18T22:44:25.828Z,100657.00
2022-09-18T22:46:55.578Z,100663.06
2022-09-18T22:49:24.801Z,100658.66
2022-09-18T22:51:53.300Z,100659.50
2022-09-18T22:54:24.891Z,100662.94
2022-09-18T22:56:54.059Z,100659.38
2022-09-18T22:59:24.743Z,100666.22
2022-09-18T23:01:57.158Z,100657.41
2022-09-18T23:04:29.307Z,100662.63
2022-09-18T23:06:59.324Z,100654.72
2022-09-18T23:09:28.481Z,100659.09
2022-09-18T23:11:57.749Z,100658.25
2022-09-18T23:14:28.050Z,100659.97
2022-09-18T23:16:58.431Z,100660.75
2022-09-18T23:19:28.981Z,100661.63
2022-09-18T23:21:57.689Z,100666.91
2022-09-18T23:24:26.853Z,100652.72
2022-09-18T23:26:57.839Z,100659.66
2022-09-18T23:29:27.829Z,100650.88
2022-09-18T23:31:58.153Z,100647.44
2022-09-18T23:34:29.819Z,100656.22
2022-09-18T23:36:58.594Z,100655.44
2022-09-18T23:39:29.558Z,100658.88
2022-09-18T23:41:59.392Z,100650.09
2022-09-18T23:44:30.529Z,100647.44
2022-09-18T23:47:01.400Z,100652.50
2022-09-18T23:49:30.909Z,100653.31
2022-09-18T23:52:01.487Z,100664.66
2022-09-18T23:54:32.532Z,100648.84
2022-09-18T23:57:00.989Z,100658.41
2022-09-18T23:59:29.291Z,100653.13
